Flight Track Log - Related Links

Times and Time Zones

All times are in EDT time to prevent confusion due to time zone crossing. See the SWA378 flight status page for this flight to view local times or setup timezone preferences in your user account.

Time Position Orientation Groundspeed Altitude Reporting Facility
EDT Latitude Longitude Course Direction KTS MPH feet Rate Location/Type
Fri 01:26:41 PM 33.9333 -118.4833 90° East 198 228 2,400  Level Southern California TRACON
Fri 01:27:14 PM 33.9014 -118.5178 222° Southwest 233 268 3,400 2,313 Climbing Los Angeles Center
Fri 01:28:17 PM 33.8328 -118.5369 193° South 268 308 6,100 2,880 Climbing Los Angeles Center
Fri 01:29:19 PM 33.7486 -118.5283 175° South 279 321 9,400 2,516 Climbing Los Angeles Center
Fri 01:30:21 PM 33.6825 -118.4750 146° Southeast 313 360 11,300 2,032 Climbing Los Angeles Center
Fri 01:31:23 PM 33.6508 -118.3683 110° East 340 391 13,600 2,323 Climbing Los Angeles Center
Fri 01:32:00 PM 33.6333 -118.2251 90° East  Level FlightAware Approximate
Fri 01:32:25 PM 33.6442 -118.2494 94° East 370 426 16,100  Level Los Angeles Center
Fri 01:33:27 PM 33.6442 -118.0986 90° East 380 437 18,900 2,419 Climbing Los Angeles Center
Fri 01:34:29 PM 33.6439 -117.9653 90° East 400 460 21,100 1,984 Climbing Los Angeles Center
Fri 01:35:31 PM 33.6442 -117.8269 90° East 414 476 23,000 1,742 Climbing Los Angeles Center
Fri 01:36:33 PM 33.6431 -117.6819 90° East 433 498 24,700 1,645 Climbing Los Angeles Center
Fri 01:37:35 PM 33.6428 -117.5317 90° East 449 517 26,400 1,790 Climbing Los Angeles Center
Fri 01:38:37 PM 33.6417 -117.3478 90° East 462 532 28,400 1,584 Climbing Los Angeles Center
Fri 01:39:40 PM 33.6406 -117.1925 90° East 467 537 29,700 1,200 Climbing Los Angeles Center
Fri 01:40:42 PM 33.6517 -117.0347 85° East 478 550 30,900 629 Climbing Los Angeles Center
Fri 01:41:44 PM 33.6767 -116.8772 79° East 484 557 31,000 48 Climbing Los Angeles Center
Fri 01:42:46 PM 33.7047 -116.7036 79° East 481 554 31,000  Level Los Angeles Center
Fri 01:43:48 PM 33.7306 -116.5453 79° East 482 555 31,000  Level Los Angeles Center
Fri 01:45:02 PM 33.7553 -116.3864 79° East 483 556 31,000  Level Los Angeles Center
Fri 01:46:05 PM 33.7864 -116.1947 79° East 484 557 31,000  Level Los Angeles Center
Fri 01:47:07 PM 33.8106 -116.0339 80° East 486 559 31,000  Level Los Angeles Center
Fri 01:48:09 PM 33.8389 -115.8442 79° East 481 554 31,000 242 Level Los Angeles Center
Fri 01:49:00 PM 33.8546 -115.7524 79° East  Level FlightAware Approximate
Fri 01:49:11 PM 33.8642 -115.6844 79° East 485 558 31,500  Level Los Angeles Center
Fri 01:50:13 PM 33.8875 -115.5242 80° East 487 560 32,900 1,306 Climbing Los Angeles Center
Fri 01:51:15 PM 33.9114 -115.3647 80° East 485 558 34,200 1,113 Climbing Los Angeles Center
Fri 01:52:17 PM 33.9367 -115.2053 79° East 485 558 35,200 823 Climbing Los Angeles Center
Fri 01:53:19 PM 33.9606 -115.0439 80° East 490 564 35,900 774 Climbing Los Angeles Center
Fri 01:54:21 PM 33.9903 -114.8456 80° East 502 578 36,800 532 Climbing Los Angeles Center
Fri 01:55:23 PM 34.0136 -114.6794 80° East 504 580 37,000 97 Climbing Los Angeles Center
Fri 01:56:25 PM 34.0339 -114.5475 79° East 502 578 37,000  Level Los Angeles Center
Fri 01:57:28 PM 34.0619 -114.3481 80° East 504 580 37,000  Level Los Angeles Center
Fri 01:58:07 PM 34.0758 -114.2539 80° East 504 580 37,000  Level Albuquerque Center
Fri 01:59:09 PM 34.1031 -114.0581 80° East 498 573 37,000  Level Albuquerque Center
Fri 02:00:11 PM 34.1247 -113.8958 81° East 493 567 37,000  Level Albuquerque Center
Fri 02:01:13 PM 34.1467 -113.7367 80° East 492 566 37,000  Level Albuquerque Center
Fri 02:02:15 PM 34.1700 -113.5697 80° East 493 567 37,000  Level Albuquerque Center
Fri 02:03:17 PM 34.1911 -113.4044 81° East 496 571 37,000  Level Albuquerque Center
Fri 02:04:19 PM 34.2131 -113.2439 81° East 490 564 37,000  Level Albuquerque Center
Fri 02:05:21 PM 34.2369 -113.0506 81° East 487 560 37,000  Level Albuquerque Center
Fri 02:06:23 PM 34.2575 -112.8903 81° East 485 558 37,000  Level Albuquerque Center
Fri 02:07:25 PM 34.2783 -112.7283 81° East 485 558 37,000  Level Albuquerque Center
Fri 02:08:27 PM 34.2997 -112.5564 81° East 492 566 37,000  Level Albuquerque Center
Fri 02:09:29 PM 34.3203 -112.3950 81° East 492 566 37,000  Level Albuquerque Center
Fri 02:10:31 PM 34.3406 -112.2297 82° East 498 573 37,000  Level Albuquerque Center
Fri 02:11:33 PM 34.3603 -112.0658 82° East 497 572 37,000  Level Albuquerque Center
Fri 02:12:35 PM 34.3847 -111.8675 81° East 499 574 37,000  Level Albuquerque Center
Fri 02:13:37 PM 34.4044 -111.7028 82° East 499 574 37,000  Level Albuquerque Center
Fri 02:14:39 PM 34.4233 -111.5397 82° East 497 572 37,000  Level Albuquerque Center
Fri 02:15:41 PM 34.4422 -111.3767 82° East 495 570 37,000  Level Albuquerque Center
Fri 02:16:43 PM 34.4614 -111.2119 82° East 496 571 37,000  Level Albuquerque Center
Fri 02:17:45 PM 34.4819 -111.0350 82° East 491 565 37,000  Level Albuquerque Center
Fri 02:18:47 PM 34.4994 -110.8722 83° East 491 565 37,000  Level Albuquerque Center
Fri 02:19:48 PM 34.5200 -110.6886 82° East 489 563 37,000  Level Albuquerque Center
Fri 02:20:50 PM 34.5375 -110.5328 82° East 488 562 37,000  Level Albuquerque Center
Fri 02:21:52 PM 34.5569 -110.3514 83° East 487 560 37,000  Level Albuquerque Center
Fri 02:22:54 PM 34.5744 -110.1958 82° East 486 559 37,000  Level Albuquerque Center
Fri 02:23:56 PM 34.5928 -110.0156 83° East 484 557 37,000  Level Albuquerque Center
Fri 02:24:58 PM 34.6092 -109.8617 83° East 481 554 37,000  Level Albuquerque Center
Fri 02:26:00 PM 34.6264 -109.6842 83° East 476 548 37,000  Level Albuquerque Center
Fri 02:27:02 PM 34.6414 -109.5347 83° East 471 542 37,000  Level Albuquerque Center
Fri 02:28:04 PM 34.6603 -109.3628 82° East 465 535 37,000  Level Albuquerque Center
Fri 02:29:06 PM 34.6736 -109.2133 84° East 464 534 37,000  Level Albuquerque Center
Fri 02:30:07 PM 34.6914 -109.0419 83° East 461 531 37,000  Level Albuquerque Center
Fri 02:31:09 PM 34.7047 -108.8950 84° East 459 528 37,000  Level Albuquerque Center
Fri 02:32:11 PM 34.7208 -108.7233 83° East 459 528 37,000  Level Albuquerque Center
Fri 02:33:13 PM 34.7353 -108.5756 83° East 461 531 37,000  Level Albuquerque Center
Fri 02:34:15 PM 34.7486 -108.4256 84° East 458 527 37,000  Level Albuquerque Center
Fri 02:35:17 PM 34.7631 -108.2697 84° East 463 533 37,000  Level Albuquerque Center
Fri 02:36:18 PM 34.7772 -108.1147 84° East 462 532 37,000  Level Albuquerque Center
Fri 02:37:20 PM 34.7900 -107.9592 84° East 463 533 37,000  Level Albuquerque Center
Fri 02:38:22 PM 34.8053 -107.7728 84° East 462 532 37,000  Level Albuquerque Center
Fri 02:39:24 PM 34.8181 -107.6169 84° East 465 535 37,000  Level Albuquerque Center
Fri 02:40:25 PM 34.8306 -107.4614 84° East 463 533 37,000  Level Albuquerque Center
Fri 02:41:27 PM 34.8442 -107.3064 84° East 463 533 37,000  Level Albuquerque Center
Fri 02:42:29 PM 34.8592 -107.1389 84° East 463 533 37,000  Level Albuquerque Center
Fri 02:43:31 PM 34.8706 -106.9925 85° East 455 524 37,000  Level Albuquerque Center
Fri 02:44:33 PM 34.8822 -106.8250 85° East 445 512 37,000  Level Albuquerque Center
Fri 02:45:35 PM 34.8917 -106.6800 85° East 444 511 37,000  Level Albuquerque Center
Fri 02:46:38 PM 34.9050 -106.5211 84° East 454 522 37,000  Level Albuquerque Center
Fri 02:47:38 PM 34.9158 -106.3611 85° East 461 531 37,000  Level Albuquerque Center
Fri 02:48:40 PM 34.9264 -106.2119 85° East 457 526 37,000  Level Albuquerque Center
Fri 02:49:42 PM 34.9403 -106.0283 85° East 455 524 37,000  Level Albuquerque Center
Fri 02:50:44 PM 34.9489 -105.8700 86° East 456 525 37,000  Level Albuquerque Center
Fri 02:51:46 PM 34.9617 -105.7150 84° East 457 526 37,000  Level Albuquerque Center
Fri 02:52:47 PM 34.9714 -105.5614 86° East 453 521 37,000  Level Albuquerque Center
Fri 02:53:49 PM 34.9828 -105.4078 85° East 452 520 37,000  Level Albuquerque Center
Fri 02:54:51 PM 34.9919 -105.2528 86° East 454 522 37,000  Level Albuquerque Center
Fri 02:55:53 PM 35.0022 -105.0986 85° East 454 522 37,000  Level Albuquerque Center
Fri 02:56:55 PM 35.0125 -104.9442 85° East 454 522 37,000  Level Albuquerque Center
Fri 02:57:57 PM 35.0233 -104.7631 86° East 456 525 37,000  Level Albuquerque Center
Fri 02:58:58 PM 35.0325 -104.6083 86° East 456 525 37,000  Level Albuquerque Center
Fri 03:00:00 PM 35.0419 -104.4542 86° East 455 524 37,000  Level Albuquerque Center
Fri 03:01:02 PM 35.0503 -104.3000 86° East 457 526 37,000  Level Albuquerque Center
Fri 03:02:04 PM 35.0594 -104.1475 86° East 456 525 37,000  Level Albuquerque Center
Fri 03:03:06 PM 35.0692 -103.9958 85° East 455 524 37,000  Level Albuquerque Center
Fri 03:04:08 PM 35.0775 -103.8158 87° East 453 521 37,000  Level Albuquerque Center
Fri 03:05:10 PM 35.0861 -103.6614 86° East 454 522 37,000  Level Albuquerque Center
Fri 03:06:11 PM 35.0939 -103.5058 86° East 456 525 37,000  Level Albuquerque Center
Fri 03:07:13 PM 35.1022 -103.3500 86° East 458 527 37,000  Level Albuquerque Center
Fri 03:08:15 PM 35.1094 -103.1931 87° East 459 528 37,000  Level Albuquerque Center
Fri 03:09:17 PM 35.1169 -103.0356 87° East 462 532 37,000  Level Albuquerque Center
Fri 03:10:19 PM 35.1253 -102.8528 87° East 459 528 37,000  Level Albuquerque Center
Fri 03:11:21 PM 35.1322 -102.6972 87° East 459 528 37,000  Level Albuquerque Center
Fri 03:12:23 PM 35.1375 -102.5428 88° East 458 527 37,000  Level Albuquerque Center
Fri 03:13:24 PM 35.1444 -102.3883 87° East 456 525 37,000  Level Albuquerque Center
Fri 03:14:26 PM 35.1511 -102.2333 87° East 458 527 37,000  Level Albuquerque Center
Fri 03:15:28 PM 35.1561 -102.0789 88° East 458 527 37,000  Level Albuquerque Center
Fri 03:16:30 PM 35.1625 -101.9133 87° East 460 529 37,000  Level Albuquerque Center
Fri 03:17:32 PM 35.1697 -101.7564 87° East 460 529 37,000  Level Albuquerque Center
Fri 03:18:33 PM 35.1750 -101.5986 88° East 460 529 37,000  Level Albuquerque Center
Fri 03:19:35 PM 35.1803 -101.4150 88° East 460 529 37,000  Level Albuquerque Center
Fri 03:20:37 PM 35.1844 -101.2806 88° East 461 531 37,000  Level Albuquerque Center
Fri 03:21:39 PM 35.1903 -101.0928 88° East 464 534 37,000  Level Albuquerque Center
Fri 03:22:41 PM 35.1947 -100.9353 88° East 465 535 37,000  Level Albuquerque Center
Fri 03:23:43 PM 35.2006 -100.7778 87° East 465 535 37,000  Level Albuquerque Center
Fri 03:24:44 PM 35.2039 -100.6167 89° East 472 543 37,000  Level Albuquerque Center
Fri 03:25:46 PM 35.2078 -100.4550 88° East 476 548 37,000  Level Albuquerque Center
Fri 03:26:48 PM 35.2114 -100.2919 88° East 479 551 37,000  Level Albuquerque Center
Fri 03:27:50 PM 35.2153 -100.0975 89° East 478 550 37,000  Level Albuquerque Center
Fri 03:28:52 PM 35.2192 -99.9339 88° East 481 554 37,000  Level Albuquerque Center
Fri 03:29:54 PM 35.2231 -99.7714 88° East 479 551 37,000  Level Albuquerque Center
Fri 03:30:55 PM 35.2261 -99.6100 89° East 478 550 37,000  Level Albuquerque Center
Fri 03:31:57 PM 35.2289 -99.4478 89° East 478 550 37,000  Level Albuquerque Center
Fri 03:32:27 PM 35.2303 -99.3681 89° East 474 545 37,000  Level Fort Worth Center
Fri 03:33:27 PM 35.2328 -99.2053 89° East 474 545 37,000  Level Fort Worth Center
Fri 03:34:27 PM 35.2328 -99.0428 90° East 474 545 37,000  Level Fort Worth Center
Fri 03:35:27 PM 35.2369 -98.8775 88° East 474 545 37,000  Level Fort Worth Center
Fri 03:36:27 PM 35.2367 -98.7097 90° East 474 545 37,000  Level Fort Worth Center
Fri 03:37:27 PM 35.2383 -98.5472 89° East 474 545 37,000  Level Fort Worth Center
Fri 03:38:27 PM 35.2397 -98.3869 89° East 474 545 37,000  Level Fort Worth Center
Fri 03:39:27 PM 35.2408 -98.2244 89° East 474 545 37,000  Level Fort Worth Center
Fri 03:40:27 PM 35.2419 -98.0644 89° East 474 545 37,000  Level Fort Worth Center
Fri 03:41:27 PM 35.2425 -97.9017 90° East 474 545 37,000  Level Fort Worth Center
Fri 03:42:27 PM 35.2431 -97.7364 90° East 479 551 37,000  Level Fort Worth Center
Fri 03:43:27 PM 35.2414 -97.5761 91° East 474 545 37,000  Level Fort Worth Center
Fri 03:44:27 PM 35.2414 -97.3933 90° East 482 555 37,000  Level Fort Worth Center
Fri 03:45:27 PM 35.2414 -97.2306 90° East 482 555 37,000  Level Fort Worth Center
Fri 03:46:27 PM 35.2411 -97.0653 90° East 482 555 37,000  Level Fort Worth Center
Fri 03:47:27 PM 35.2406 -96.9025 90° East 477 549 37,000  Level Fort Worth Center
Fri 03:48:27 PM 35.2397 -96.7375 90° East 477 549 37,000 250 Level Fort Worth Center
Fri 03:49:27 PM 35.2386 -96.5747 90° East 477 549 37,500 850 Climbing Fort Worth Center
Fri 03:50:27 PM 35.2375 -96.4069 90° East 477 549 38,700 750 Climbing Fort Worth Center
Fri 03:51:27 PM 35.2361 -96.2469 91° East 477 549 39,000 150 Climbing Fort Worth Center
Fri 03:52:27 PM 35.2344 -96.0767 91° East 477 549 39,000  Level Fort Worth Center
Fri 03:53:27 PM 35.2306 -95.9142 92° East 477 549 39,000  Level Fort Worth Center
Fri 03:54:27 PM 35.2328 -95.7717 89° East 470 541 39,000  Level Fort Worth Center
Fri 03:55:27 PM 35.2306 -95.6092 91° East 470 541 39,000  Level Fort Worth Center
Fri 03:57:08 PM 35.2256 -95.3211 91° East 473 544 39,000  Level Memphis Center
Fri 03:58:08 PM 35.2214 -95.1608 92° East 473 544 39,000  Level Memphis Center
Fri 03:59:08 PM 35.2194 -94.9981 91° East 473 544 39,000  Level Memphis Center
Fri 04:00:08 PM 35.2150 -94.8328 92° East 473 544 39,000  Level Memphis Center
Fri 04:01:08 PM 35.2125 -94.6700 91° East 479 551 39,000  Level Memphis Center
Fri 04:02:08 PM 35.2075 -94.5044 92° East 479 551 39,000  Level Memphis Center
Fri 04:03:08 PM 35.2025 -94.3389 92° East 479 551 39,000  Level Memphis Center
Fri 04:04:08 PM 35.1992 -94.1761 91° East 479 551 39,000  Level Memphis Center
Fri 04:05:08 PM 35.1958 -94.0133 91° East 479 551 39,000  Level Memphis Center
Fri 04:06:08 PM 35.1900 -93.8506 92° East 479 551 39,000  Level Memphis Center
Fri 04:07:08 PM 35.1839 -93.6903 93° East 479 551 39,000  Level Memphis Center
Fri 04:08:08 PM 35.1819 -93.5303 91° East 479 551 39,000  Level Memphis Center
Fri 04:09:08 PM 35.1756 -93.3725 93° East 474 545 39,000  Level Memphis Center
Fri 04:10:08 PM 35.1722 -93.2378 92° East 462 532 39,000  Level Memphis Center
Fri 04:11:08 PM 35.1653 -93.0825 93° East 457 526 39,000  Level Memphis Center
Fri 04:12:08 PM 35.1603 -92.9250 92° East 457 526 39,000  Level Memphis Center
Fri 04:13:08 PM 35.1553 -92.7697 92° East 457 526 39,000  Level Memphis Center
Fri 04:14:08 PM 35.1478 -92.6097 93° East 462 532 39,000  Level Memphis Center
Fri 04:15:08 PM 35.1400 -92.4544 93° East 462 532 39,000  Level Memphis Center
Fri 04:16:08 PM 35.1342 -92.3019 93° East 462 532 39,000  Level Memphis Center
Fri 04:17:08 PM 35.1281 -92.1494 93° East 462 532 39,000  Level Memphis Center
Fri 04:18:08 PM 35.1197 -91.9944 94° East 462 532 39,000  Level Memphis Center
Fri 04:19:08 PM 35.1156 -91.8397 92° East 462 532 39,000  Level Memphis Center
Fri 04:20:08 PM 35.1089 -91.6847 93° East 462 532 39,000  Level Memphis Center
Fri 04:22:08 PM 35.0931 -91.3697 93° East 445 512 39,000  Level Memphis Center
Fri 04:23:08 PM 35.0856 -91.2350 94° East 440 506 39,000  Level Memphis Center
Fri 04:24:08 PM 35.0783 -91.0828 93° East 440 506 39,000  Level Memphis Center
Fri 04:25:08 PM 35.0708 -90.9331 93° East 440 506 39,000  Level Memphis Center
Fri 04:26:08 PM 35.0631 -90.7756 93° East 453 521 39,000  Level Memphis Center
Fri 04:27:08 PM 35.0550 -90.6208 94° East 453 521 39,000  Level Memphis Center
Fri 04:28:08 PM 35.0469 -90.4711 94° East 459 528 39,000  Level Memphis Center
Fri 04:29:08 PM 35.0367 -90.2989 94° East 464 534 39,000  Level Memphis Center
Fri 04:30:08 PM 35.0258 -90.1364 95° East 459 528 39,000  Level Memphis Center
Fri 04:31:08 PM 35.0172 -89.9792 94° East 459 528 39,000  Level Memphis Center
Fri 04:32:08 PM 35.0000 -89.8272 98° East 464 534 39,000  Level Memphis Center
Fri 04:33:08 PM 34.9761 -89.6653 100° East 469 540 39,000  Level Memphis Center
Fri 04:34:08 PM 34.9503 -89.5311 103° East 464 534 39,000  Level Memphis Center
Fri 04:35:08 PM 34.9264 -89.3844 101° East 448 516 39,000 -350 Level Memphis Center
Fri 04:36:08 PM 34.9042 -89.2328 100° East 448 516 38,300 -850 Descending Memphis Center
Fri 04:37:08 PM 34.8839 -89.0864 100° East 448 516 37,300 -950 Descending Memphis Center
Fri 04:38:08 PM 34.8572 -88.9297 102° East 448 516 36,400 -950 Descending Memphis Center
Fri 04:39:08 PM 34.8347 -88.7883 101° East 429 494 35,400 -800 Descending Memphis Center
Fri 04:40:08 PM 34.8139 -88.6472 100° East 423 487 34,800 -800 Descending Memphis Center
Fri 04:41:08 PM 34.7931 -88.5061 100° East 431 496 33,800 -900 Descending Memphis Center
Fri 04:42:08 PM 34.7703 -88.3700 101° East 421 484 33,000 -400 Descending Memphis Center
Fri 04:43:08 PM 34.7469 -88.2264 101° East 421 484 33,000  Level Memphis Center
Fri 04:44:08 PM 34.7256 -88.0831 100° East 433 498 33,000  Level Memphis Center
Fri 04:45:08 PM 34.7000 -87.9422 102° East 428 493 33,000  Level Memphis Center
Fri 04:46:08 PM 34.6783 -87.7989 100° East 428 493 33,000  Level Memphis Center
Fri 04:47:08 PM 34.6569 -87.6733 102° East 433 498 33,000  Level Memphis Center
Fri 04:48:08 PM 34.6369 -87.5300 100° East 427 491 33,000  Level Memphis Center
Fri 04:50:01 PM 34.5853 -87.2481 102° East 463 533 33,000  Level Atlanta Center
Fri 04:51:01 PM 34.5575 -87.1058 103° East 450 518 33,000  Level Atlanta Center
Fri 04:52:01 PM 34.5297 -86.9611 103° East 439 505 33,000 -450 Level Atlanta Center
Fri 04:53:01 PM 34.5036 -86.8242 103° East 427 491 32,100 -950 Descending Atlanta Center
Fri 04:54:01 PM 34.4775 -86.6872 103° East 422 486 31,100 -1,000 Descending Atlanta Center
Fri 04:55:01 PM 34.4492 -86.5503 104° East 417 480 30,100 -1,000 Descending Atlanta Center
Fri 04:56:01 PM 34.4244 -86.4186 103° East 417 480 29,100 -1,000 Descending Atlanta Center
Fri 04:57:01 PM 34.3978 -86.2844 104° East 412 474 28,100 -950 Descending Atlanta Center
Fri 04:58:01 PM 34.3731 -86.1528 103° East 407 468 27,200 -1,000 Descending Atlanta Center
Fri 04:59:01 PM 34.3439 -86.0239 105° East 407 468 26,100 -1,300 Descending Atlanta Center
Fri 05:00:01 PM 34.3103 -85.8997 108° East 396 456 24,600 -1,500 Descending Atlanta Center
Fri 05:01:01 PM 34.2847 -85.7911 106° East 390 449 23,100 -1,550 Descending Atlanta Center
Fri 05:02:01 PM 34.2511 -85.6697 108° East 372 428 21,500 -1,600 Descending Atlanta Center
Fri 05:03:01 PM 34.2233 -85.5511 106° East 367 422 19,900 -1,500 Descending Atlanta Center
Fri 05:04:01 PM 34.1933 -85.4375 108° East 367 422 18,500 -1,400 Descending Atlanta Center
Fri 05:05:01 PM 34.1675 -85.3267 106° East 355 409 17,100 -1,500 Descending Atlanta Center
Fri 05:06:01 PM 34.1372 -85.2158 108° East 343 395 15,500 -1,550 Descending Atlanta Center
Fri 05:07:01 PM 34.1092 -85.0975 106° East 343 395 14,000 -1,250 Descending Atlanta Center
Fri 05:08:01 PM 34.0744 -85.0019 114° Southeast 324 373 13,000 -1,200 Descending Atlanta Center
Fri 05:09:01 PM 34.0164 -84.9311 135° Southeast 300 345 11,600 -1,300 Descending Atlanta Center
Fri 05:10:01 PM 33.9628 -84.8653 134° Southeast 287 330 10,400 -1,100 Descending Atlanta Center
Fri 05:11:01 PM 33.9067 -84.8172 145° Southeast 267 307 9,400 -1,200 Descending Atlanta Center
Fri 05:12:01 PM 33.8378 -84.8167 180° South 238 274 8,000 -1,400 Descending Atlanta Center
Fri 05:13:01 PM 33.7689 -84.8108 176° South 249 287 6,600 -1,450 Descending Atlanta Center
Fri 05:14:01 PM 33.7042 -84.8103 180° South 249 287 5,100 -800 Descending Atlanta Center
Fri 05:15:01 PM 33.6667 -84.7825 148° Southeast 158 182 5,000 -46 Descending Atlanta Center
Fri 05:16:12 PM 33.6500 -84.7333 112° Southeast 147 169 5,000  Level Atlanta TRACON
Fri 05:17:12 PM 33.6500 -84.6833 90° East 150 173 5,000 -450 Level Atlanta TRACON
Fri 05:18:12 PM 33.6500 -84.6333 90° East 156 180 4,100 -850 Descending Atlanta TRACON
Fri 05:19:12 PM 33.6500 -84.5667 90° East 152 175 3,300 -750 Descending Atlanta TRACON
Fri 05:20:12 PM 33.6500 -84.5333 90° East 133 153 2,600 -700 Descending Atlanta TRACON
Fri 05:21:12 PM 33.6500 -84.4833 90° East 130 150 1,900 -700 Descending Atlanta TRACON
Fri 05:23:00 PM 33.6367 -84.4279 North  Level Estimated
Fri 05:30:00 PM 33.6367 -84.4279 North  Level Estimated
Fri 05:31:00 PM 33.6367 -84.4279 North  Level Estimated

Login

Don't have an account? Register now (free) for customized features, flight alerts, and more!